MIV - Millville Muni

Pirep is a free, collaborative database of all public and private airports located within the United States. All pilots are welcome to contribute, edit, and improve any airport they have local knowledge about, no registration required.
Uploaded photos will be licensed under a CC BY-SA 4.0 license. Please only upload photos you have the rights to use.
Tags
Public
Food
Museum
METAR / TAF
Edit Tags
Camping
Lodging
Car Rental
Bicycles
Swimming
Golfing
Fishing
Hot Springs
Flying Clubs
Airpark
Upcoming Events
No upcoming events. Is anything happening here soon?
*
*
*

Where exactly on/near the airport is this event taking place?

Is there a webpage with more information for this event?

Who should be contacted for more information?

What is this event all about?

Repeat every
Description
Last updated: 2023-06-13 23:23:34 EDT
Transient Parking
Fuel Location
Landing & Tie-down Fees
Crew Car Availability
Flying Clubs
WiFi Access
Airport Statistics
Location: Millville, NJ
Elevation: 84ft
Sectional: Washington
Activation date: May 1943
Fuel: 100LL, A (prices)
Runway 10/28: 6,003ft
Runway 14/32: 5,058ft
Access: Open to the public
Current Weather — VFR
  • Weather data is strictly informational and not for flight planning purposes.
  • METAR
    2024-05-29 11:54:00 EDT
    Ceiling Wind Temperature Dewpoint Weather Visbility
    4,300ft 290° @ 5kt 73°F 53°F N/A 10SM
    Clouds: Broken @ 4,300ft, Broken @ 6,000ft
    Raw: KMIV 291554Z AUTO 29005KT 10SM BKN043 BKN060 23/12 A2997 RMK AO2 SLP147 T02280117
  • TAF
    2024-05-29 08:00:00 EDT – 2024-05-29 10:00:00 EDT
    Ceiling Wind Weather Visbility
    Sky clear Variable N/A 6SM
    Clouds: @ ft
    Raw: KMIV 291120Z 2912/3012 VRB02KT P6SM SKC FM291400 30007KT P6SM BKN250 FM292200 28010KT P6SM -SHRA OVC080 FM300600 VRB03KT P6SM OVC050
  • TAF
    2024-05-29 10:00:00 EDT – 2024-05-29 18:00:00 EDT
    Ceiling Wind Weather Visbility
    25,000ft 300° @ 7kt N/A 6SM
    Clouds: Broken @ 25,000ft
    Raw: KMIV 291120Z 2912/3012 VRB02KT P6SM SKC FM291400 30007KT P6SM BKN250 FM292200 28010KT P6SM -SHRA OVC080 FM300600 VRB03KT P6SM OVC050
  • TAF
    2024-05-29 18:00:00 EDT – 2024-05-30 02:00:00 EDT
    Ceiling Wind Weather Visbility
    8,000ft 280° @ 10kt Light rain showers 6SM
    Clouds: Overcast @ 8,000ft
    Raw: KMIV 291120Z 2912/3012 VRB02KT P6SM SKC FM291400 30007KT P6SM BKN250 FM292200 28010KT P6SM -SHRA OVC080 FM300600 VRB03KT P6SM OVC050
  • TAF
    2024-05-30 02:00:00 EDT – 2024-05-30 08:00:00 EDT
    Ceiling Wind Weather Visbility
    5,000ft Variable N/A 6SM
    Clouds: Overcast @ 5,000ft
    Raw: KMIV 291120Z 2912/3012 VRB02KT P6SM SKC FM291400 30007KT P6SM BKN250 FM292200 28010KT P6SM -SHRA OVC080 FM300600 VRB03KT P6SM OVC050
Click/tap to add an annotation marker to the map
Airport Webcams
No webcams added yet.
Direct links to live image URLs will be displayed inline on this page. URLs to separate webpages will be linked to.
URL:
Direct links to live image URLs will be displayed inline on this page. URLs to separate webpages will be linked to.
URL:
Remarks
  • All ultralight acft, glider ops and formation flts ppr. call (856) 825-1244 mon-fri 0800-1600.
  • Paew within all rwy and twy safety areas daily may - oct.
  • Twy g not to be used by acft with wingspan gtr than 48 ft north of twy a.
  • Main apron clsd to transient acft north of twy k.
  • Birds on & invof arpt.
  • For cd if una to ctc on fss freq, ctc atlantic city approach at 609-485-6193.
  • Actvt malsr rwy 10; mirl rwy 10/28 & 14/32 - ctaf.
  • Self serv avbl h24 with credit card.
Comments
Leave a comment What was your experience like at this airport?